Time;durP1;ratioP1;P1;durP2;ratioP2;P2;SDS_P1;SDS_P2;PMS_P1;PMS_P2;Temp;Humidity;BMP_temperature;BMP_pressure;BME280_temperature;BME280_humidity;BME280_pressure;Samples;Min_cycle;Max_cycle;Signal;HPM_P1;HPM_P2
2022/04/29 00:00:39;;;;;;;18.73;6.93;;;2.90;99.90;;;;;;4993976;28;20084;-71
2022/04/29 00:03:07;;;;;;;14.73;6.60;;;2.80;99.90;;;;;;4994744;28;20030;-71
2022/04/29 00:05:34;;;;;;;14.10;6.25;;;2.70;99.90;;;;;;4994704;28;20050;-72
2022/04/29 00:08:00;;;;;;;19.65;6.57;;;2.70;99.90;;;;;;4994578;28;20130;-72
2022/04/29 00:10:26;;;;;;;16.75;6.40;;;2.70;99.90;;;;;;4993184;28;20019;-72
2022/04/29 00:12:53;;;;;;;18.00;7.70;;;2.70;99.90;;;;;;4994119;28;20033;-72
2022/04/29 00:15:20;;;;;;;16.45;7.05;;;2.70;99.90;;;;;;4994631;28;20073;-72
2022/04/29 00:17:46;;;;;;;16.20;7.28;;;2.60;99.90;;;;;;4994606;28;20038;-72
2022/04/29 00:20:13;;;;;;;20.25;7.93;;;2.60;99.90;;;;;;4994769;28;20467;-72
2022/04/29 00:22:39;;;;;;;17.00;7.55;;;2.60;99.90;;;;;;4993850;28;20030;-72
2022/04/29 00:25:06;;;;;;;14.60;7.55;;;2.60;99.90;;;;;;4992993;28;20033;-72
2022/04/29 00:27:32;;;;;;;22.48;8.20;;;2.60;99.90;;;;;;4994282;28;20045;-72
2022/04/29 00:29:57;;;;;;;17.40;7.65;;;2.60;99.90;;;;;;4994190;28;20394;-72
2022/04/29 00:32:23;;;;;;;16.02;6.95;;;2.70;99.90;;;;;;4995522;28;20486;-72
2022/04/29 00:34:49;;;;;;;15.02;7.47;;;2.60;99.90;;;;;;4998541;28;20068;-72
2022/04/29 00:37:15;;;;;;;16.90;6.97;;;2.60;99.90;;;;;;4998153;28;20061;-71
2022/04/29 00:39:41;;;;;;;14.43;7.32;;;2.60;99.90;;;;;;4998135;28;20022;-71
2022/04/29 00:42:15;;;;;;;13.95;7.47;;;2.60;99.90;;;;;;4997697;28;20106;-72
2022/04/29 00:44:42;;;;;;;17.23;7.63;;;2.60;99.90;;;;;;4998015;28;20037;-72
2022/04/29 00:47:15;;;;;;;12.80;7.40;;;2.60;99.90;;;;;;4998047;28;20097;-72
2022/04/29 00:49:41;;;;;;;18.00;7.17;;;2.60;99.90;;;;;;4998550;28;20037;-72
2022/04/29 00:52:12;;;;;;;18.73;7.80;;;2.50;99.90;;;;;;4997602;28;20022;-72
2022/04/29 00:54:39;;;;;;;14.68;7.28;;;2.50;99.90;;;;;;4998273;28;20057;-72
2022/04/29 00:57:10;;;;;;;15.23;8.10;;;2.50;99.90;;;;;;4997956;28;20441;-72
2022/04/29 00:59:51;;;;;;;17.48;7.40;;;2.50;99.90;;;;;;4998103;28;20030;-72
2022/04/29 01:02:17;;;;;;;16.23;8.70;;;2.50;99.90;;;;;;4997785;28;20037;-72
2022/04/29 01:05:03;;;;;;;14.77;7.63;;;2.50;99.90;;;;;;4997732;28;20390;-72
2022/04/29 01:07:30;;;;;;;17.77;7.03;;;2.50;99.90;;;;;;4997573;28;20553;-72
2022/04/29 01:09:56;;;;;;;14.52;7.47;;;2.40;99.90;;;;;;4997237;28;20042;-72
2022/04/29 01:12:26;;;;;;;19.25;7.85;;;2.40;99.90;;;;;;4997615;28;20022;-72
2022/04/29 01:14:58;;;;;;;15.20;7.78;;;2.40;99.90;;;;;;4997022;28;20446;-72
2022/04/29 01:17:25;;;;;;;18.85;8.52;;;2.40;99.90;;;;;;4996221;28;20505;-72
2022/04/29 01:19:50;;;;;;;21.27;8.80;;;2.40;99.90;;;;;;4997383;28;20031;-72
2022/04/29 01:22:16;;;;;;;17.92;8.18;;;2.40;99.90;;;;;;4997472;28;20037;-72
2022/04/29 01:24:42;;;;;;;15.50;7.97;;;2.40;99.90;;;;;;4997356;28;20478;-72
2022/04/29 01:27:11;;;;;;;15.35;8.75;;;2.50;99.90;;;;;;4998049;28;20023;-72
2022/04/29 01:29:40;;;;;;;21.83;9.15;;;2.50;99.90;;;;;;4996892;28;20097;-72
2022/04/29 01:32:09;;;;;;;17.95;8.50;;;2.50;99.90;;;;;;4997261;28;20053;-72
2022/04/29 01:34:36;;;;;;;21.95;8.60;;;2.60;99.90;;;;;;4997302;28;20027;-72
2022/04/29 01:37:02;;;;;;;26.70;8.85;;;2.60;99.90;;;;;;5012145;28;20034;-72
2022/04/29 01:39:27;;;;;;;21.58;9.20;;;2.60;99.90;;;;;;4996644;28;20553;-72
2022/04/29 01:41:53;;;;;;;20.15;9.93;;;2.50;99.90;;;;;;4996985;28;20109;-72
2022/04/29 01:44:18;;;;;;;14.73;8.15;;;2.50;99.90;;;;;;4996886;28;20493;-72
2022/04/29 01:46:44;;;;;;;16.95;9.05;;;2.50;99.90;;;;;;4997179;28;20034;-72
2022/04/29 01:49:10;;;;;;;10.45;8.05;;;2.40;99.90;;;;;;4996435;28;20042;-72
2022/04/29 01:51:35;;;;;;;20.73;8.38;;;2.50;99.90;;;;;;4997013;28;20023;-72
2022/04/29 01:54:01;;;;;;;20.75;9.20;;;2.50;99.90;;;;;;4996900;28;20044;-72
2022/04/29 01:56:32;;;;;;;14.85;7.97;;;2.40;99.90;;;;;;4996551;28;20104;-72
2022/04/29 01:59:02;;;;;;;15.70;7.70;;;2.40;99.90;;;;;;4998530;28;20121;-72
2022/04/29 02:01:28;;;;;;;23.17;9.07;;;2.40;99.90;;;;;;4998221;28;20026;-72
2022/04/29 02:03:54;;;;;;;18.65;9.00;;;2.40;99.90;;;;;;4996872;28;20037;-72
2022/04/29 02:06:21;;;;;;;13.73;8.32;;;2.40;99.90;;;;;;4996213;28;20419;-72
2022/04/29 02:08:46;;;;;;;14.07;8.20;;;2.40;99.90;;;;;;4996853;28;20030;-72
2022/04/29 02:11:12;;;;;;;18.20;9.02;;;2.40;99.90;;;;;;4996514;28;20391;-72
2022/04/29 02:13:38;;;;;;;19.17;8.40;;;2.40;99.90;;;;;;4996385;28;20034;-72
2022/04/29 02:16:04;;;;;;;13.80;7.82;;;2.40;99.90;;;;;;4996448;28;20030;-72
2022/04/29 02:18:30;;;;;;;16.45;9.70;;;2.40;99.90;;;;;;4994675;28;20034;-72
2022/04/29 02:20:56;;;;;;;22.42;9.63;;;2.30;99.90;;;;;;4996551;28;20022;-72
2022/04/29 02:23:21;;;;;;;16.45;8.70;;;2.30;99.90;;;;;;4996448;28;20042;-72
2022/04/29 02:25:47;;;;;;;17.85;8.95;;;2.30;99.90;;;;;;4996313;28;20022;-72
2022/04/29 02:28:13;;;;;;;23.70;8.43;;;2.30;99.90;;;;;;4996485;28;20029;-72
2022/04/29 02:30:40;;;;;;;12.45;8.15;;;2.40;99.90;;;;;;4996191;28;20178;-72
2022/04/29 02:33:07;;;;;;;16.02;7.80;;;2.30;99.90;;;;;;4995716;28;20109;-72
2022/04/29 02:35:32;;;;;;;14.48;7.97;;;2.20;99.90;;;;;;4994359;28;20049;-72
2022/04/29 02:37:58;;;;;;;17.65;8.57;;;2.20;99.90;;;;;;4996048;28;20113;-72
2022/04/29 02:40:24;;;;;;;18.20;8.18;;;2.10;99.90;;;;;;4995844;28;20034;-72
2022/04/29 02:42:50;;;;;;;27.88;9.20;;;2.00;99.90;;;;;;4995436;28;20098;-72
2022/04/29 02:45:15;;;;;;;13.77;7.65;;;2.00;99.90;;;;;;4995808;28;20447;-71
2022/04/29 02:51:04;;;;;;;20.25;9.35;;;1.90;99.90;;;;;;4995842;28;20442;-72
2022/04/29 02:53:31;;;;;;;14.00;7.75;;;2.00;99.90;;;;;;4995078;28;20029;-72
2022/04/29 02:55:56;;;;;;;12.27;8.40;;;2.00;99.90;;;;;;4995045;28;20465;-72
2022/04/29 02:58:22;;;;;;;16.95;8.43;;;1.90;99.90;;;;;;4995585;28;20061;-72
2022/04/29 03:00:47;;;;;;;19.02;8.60;;;1.90;99.90;;;;;;4995593;28;20018;-72
2022/04/29 03:03:13;;;;;;;16.50;9.15;;;1.90;99.90;;;;;;4994931;28;20070;-72
2022/04/29 03:05:39;;;;;;;15.68;8.70;;;2.00;99.90;;;;;;4995411;28;20073;-72
2022/04/29 03:08:05;;;;;;;21.33;9.07;;;2.00;99.90;;;;;;4994292;28;20459;-72
2022/04/29 03:10:30;;;;;;;18.52;9.00;;;2.10;99.90;;;;;;4995497;28;20022;-72
2022/04/29 03:12:56;;;;;;;22.60;10.13;;;2.20;99.90;;;;;;4995093;28;20037;-72
2022/04/29 03:15:25;;;;;;;18.35;8.90;;;2.20;99.90;;;;;;4995579;28;20037;-72
2022/04/29 03:20:37;;;;;;;12.98;8.90;;;2.30;99.90;;;;;;4995874;28;20033;-72
2022/04/29 03:23:03;;;;;;;18.52;9.45;;;2.30;99.90;;;;;;4995129;28;20027;-72
2022/04/29 03:25:29;;;;;;;18.02;9.25;;;2.30;99.90;;;;;;4994479;28;20030;-72
2022/04/29 03:27:55;;;;;;;15.63;9.43;;;2.30;99.90;;;;;;4995459;28;20467;-72
2022/04/29 03:30:20;;;;;;;19.33;10.27;;;2.40;99.90;;;;;;4994980;28;20029;-72
2022/04/29 03:32:53;;;;;;;18.42;8.80;;;2.40;99.90;;;;;;4993730;28;20019;-72
2022/04/29 03:35:19;;;;;;;17.83;9.00;;;2.50;99.90;;;;;;4994758;28;20034;-72
2022/04/29 03:37:45;;;;;;;24.35;8.98;;;2.50;99.90;;;;;;4994544;28;20070;-72
2022/04/29 03:40:13;;;;;;;18.08;10.30;;;2.50;99.90;;;;;;4994960;28;20510;-72
2022/04/29 03:42:39;;;;;;;17.45;9.07;;;2.50;99.90;;;;;;4994858;28;20360;-72
2022/04/29 03:45:06;;;;;;;19.42;9.13;;;2.60;99.90;;;;;;4993588;28;20113;-72
2022/04/29 03:47:31;;;;;;;24.65;10.45;;;2.60;99.90;;;;;;4994350;28;20030;-72
2022/04/29 03:49:57;;;;;;;15.52;9.20;;;2.60;99.90;;;;;;4993581;28;20088;-72
2022/04/29 03:52:22;;;;;;;19.40;9.75;;;2.60;99.90;;;;;;4994717;28;20019;-72
2022/04/29 03:54:48;;;;;;;13.23;9.05;;;2.70;99.90;;;;;;4994627;28;20093;-72
2022/04/29 03:57:13;;;;;;;16.42;9.38;;;2.70;99.90;;;;;;4994870;28;20038;-72
2022/04/29 03:59:39;;;;;;;12.93;9.02;;;2.80;99.90;;;;;;4994908;28;20034;-72
2022/04/29 04:02:05;;;;;;;16.45;9.02;;;2.80;99.90;;;;;;4994290;28;20037;-72
2022/04/29 04:04:30;;;;;;;16.27;9.55;;;2.90;99.90;;;;;;4994485;28;20029;-72
2022/04/29 04:07:01;;;;;;;14.95;9.07;;;2.90;99.90;;;;;;4994543;28;20022;-72
2022/04/29 04:09:27;;;;;;;14.90;9.10;;;3.10;99.90;;;;;;4994518;28;20029;-72
2022/04/29 04:11:53;;;;;;;18.55;10.88;;;3.10;99.90;;;;;;4994512;28;20193;-72
2022/04/29 04:14:18;;;;;;;16.45;9.40;;;3.20;99.90;;;;;;4994582;28;20590;-72
2022/04/29 04:16:47;;;;;;;18.70;10.20;;;3.30;99.90;;;;;;4993977;28;20037;-72
2022/04/29 04:19:13;;;;;;;12.15;9.27;;;3.30;99.90;;;;;;4994708;28;20528;-72
2022/04/29 04:21:42;;;;;;;17.00;9.75;;;3.40;99.90;;;;;;4995199;28;20066;-72
2022/04/29 04:24:08;;;;;;;24.50;10.63;;;3.50;99.90;;;;;;4995798;28;20027;-72
2022/04/29 04:26:34;;;;;;;19.02;9.18;;;3.50;99.90;;;;;;4995260;28;20042;-72
2022/04/29 04:29:00;;;;;;;16.10;10.35;;;3.60;99.90;;;;;;4994234;28;20022;-72
2022/04/29 04:31:26;;;;;;;22.05;10.90;;;3.60;99.90;;;;;;4992982;28;20029;-72
2022/04/29 04:33:52;;;;;;;13.18;9.23;;;3.60;99.90;;;;;;4994296;28;20060;-72
2022/04/29 04:36:18;;;;;;;22.52;9.90;;;3.70;99.90;;;;;;4994134;28;20112;-72
2022/04/29 04:38:44;;;;;;;22.70;12.60;;;3.70;99.90;;;;;;4993940;28;20481;-72
2022/04/29 04:41:10;;;;;;;22.98;10.35;;;3.80;99.90;;;;;;4994267;28;20102;-72
2022/04/29 04:43:36;;;;;;;31.20;11.48;;;3.90;99.90;;;;;;4994042;28;20113;-72
2022/04/29 04:46:03;;;;;;;26.08;11.07;;;3.90;99.90;;;;;;4994160;28;20437;-72
2022/04/29 04:48:28;;;;;;;17.40;10.77;;;3.90;99.90;;;;;;4994403;28;20041;-72
2022/04/29 04:50:54;;;;;;;25.73;10.95;;;4.10;99.90;;;;;;4993722;28;20391;-72
2022/04/29 04:53:20;;;;;;;35.25;12.60;;;4.20;99.90;;;;;;4994411;28;20026;-72
2022/04/29 04:55:46;;;;;;;17.98;10.88;;;4.20;99.90;;;;;;4994020;28;20030;-72
2022/04/29 04:58:11;;;;;;;22.50;11.88;;;4.30;99.90;;;;;;4994269;28;20037;-72
2022/04/29 05:00:39;;;;;;;36.72;12.68;;;4.30;99.90;;;;;;4994132;28;20025;-72
2022/04/29 05:03:05;;;;;;;28.00;13.90;;;4.30;99.90;;;;;;4993571;28;20022;-72
2022/04/29 05:05:32;;;;;;;17.13;11.45;;;4.30;99.90;;;;;;4993874;28;20395;-72
2022/04/29 05:07:58;;;;;;;27.48;13.27;;;4.40;99.90;;;;;;4994320;28;20105;-72
2022/04/29 05:10:23;;;;;;;22.30;12.13;;;4.40;99.90;;;;;;4993708;28;20459;-72
2022/04/29 05:12:49;;;;;;;27.38;13.75;;;4.50;99.90;;;;;;4993727;28;20026;-72
2022/04/29 05:15:15;;;;;;;27.88;13.43;;;4.60;99.90;;;;;;4994271;28;20438;-72
2022/04/29 05:17:41;;;;;;;32.33;12.63;;;4.70;99.90;;;;;;4994123;28;20026;-72
2022/04/29 05:20:09;;;;;;;28.65;12.55;;;4.80;99.90;;;;;;4996978;28;20546;-72
2022/04/29 05:22:35;;;;;;;26.08;14.25;;;5.00;99.90;;;;;;4997660;28;20063;-72
2022/04/29 05:25:00;;;;;;;25.05;13.52;;;5.20;99.90;;;;;;4997342;28;20459;-71
2022/04/29 05:27:26;;;;;;;28.33;13.45;;;5.30;99.90;;;;;;4997346;28;20018;-72
2022/04/29 05:29:51;;;;;;;22.27;13.68;;;5.50;99.90;;;;;;4996902;28;20028;-72
2022/04/29 05:32:18;;;;;;;25.02;13.02;;;5.70;99.90;;;;;;4997338;28;20027;-72
2022/04/29 05:34:44;;;;;;;40.50;12.90;;;6.00;99.90;;;;;;4997554;28;20033;-72
2022/04/29 05:37:10;;;;;;;35.67;15.10;;;6.30;99.90;;;;;;4997562;28;20038;-72
2022/04/29 05:42:22;;;;;;;24.08;12.25;;;7.00;99.90;;;;;;4996682;28;20038;-71
2022/04/29 05:44:48;;;;;;;16.70;9.88;;;7.40;99.90;;;;;;4996993;28;20022;-71
2022/04/29 05:47:14;;;;;;;17.88;9.57;;;7.70;99.90;;;;;;4996898;28;20081;-71
2022/04/29 05:49:39;;;;;;;28.38;8.02;;;8.00;99.90;;;;;;4996869;28;20097;-71
2022/04/29 05:52:07;;;;;;;11.90;7.00;;;8.20;99.90;;;;;;4996436;28;20078;-71
2022/04/29 05:54:33;;;;;;;18.95;5.47;;;8.30;99.90;;;;;;4996817;28;20052;-71
2022/04/29 05:56:59;;;;;;;17.27;4.22;;;8.30;99.90;;;;;;4996952;28;20053;-71
2022/04/29 05:59:25;;;;;;;15.25;5.43;;;8.20;99.90;;;;;;4997036;28;20022;-71
2022/04/29 06:01:51;;;;;;;13.63;4.28;;;8.30;99.90;;;;;;4996429;28;20129;-71
2022/04/29 06:04:17;;;;;;;15.52;4.57;;;8.30;99.90;;;;;;4996723;28;20530;-71
2022/04/29 06:06:43;;;;;;;12.95;4.82;;;8.30;99.90;;;;;;4996542;28;20026;-71
2022/04/29 06:09:09;;;;;;;15.95;4.47;;;8.40;99.90;;;;;;4996640;28;20101;-71
2022/04/29 06:11:34;;;;;;;17.63;5.30;;;8.40;99.90;;;;;;4996417;28;20549;-71
2022/04/29 06:14:00;;;;;;;15.88;4.60;;;8.40;99.90;;;;;;4995995;28;20033;-71
2022/04/29 06:16:26;;;;;;;19.38;4.50;;;8.50;99.90;;;;;;4996398;28;20023;-71
2022/04/29 06:18:52;;;;;;;13.55;4.60;;;8.40;99.90;;;;;;4996408;28;20105;-71
2022/04/29 06:21:18;;;;;;;14.90;5.43;;;8.30;99.90;;;;;;4996481;28;20109;-71
2022/04/29 06:23:44;;;;;;;14.32;4.78;;;8.40;99.90;;;;;;4994999;28;20026;-71
2022/04/29 06:26:10;;;;;;;10.98;5.03;;;8.40;99.90;;;;;;4995578;28;20023;-71
2022/04/29 06:28:36;;;;;;;13.27;4.20;;;8.30;99.90;;;;;;4996271;28;20033;-71
2022/04/29 06:31:02;;;;;;;19.67;4.93;;;8.20;99.90;;;;;;4995508;28;20022;-71
2022/04/29 06:33:33;;;;;;;8.27;4.50;;;8.20;99.90;;;;;;4995675;28;20030;-71
2022/04/29 06:35:58;;;;;;;17.30;5.40;;;8.30;99.90;;;;;;4996051;28;20117;-71
2022/04/29 06:38:24;;;;;;;9.30;4.18;;;8.30;99.90;;;;;;4996316;28;20068;-71
2022/04/29 06:40:50;;;;;;;22.15;5.28;;;8.30;99.90;;;;;;4996277;28;20072;-71
2022/04/29 06:43:19;;;;;;;12.35;5.22;;;8.40;99.90;;;;;;4995523;28;20022;-71
2022/04/29 06:45:44;;;;;;;11.50;4.93;;;8.40;99.90;;;;;;4995874;28;20049;-71
2022/04/29 06:48:10;;;;;;;16.70;4.72;;;8.50;99.90;;;;;;4996911;28;20467;-71
2022/04/29 06:50:36;;;;;;;16.17;4.78;;;8.50;99.90;;;;;;5012226;28;20018;-71
2022/04/29 06:53:01;;;;;;;15.93;5.00;;;8.50;99.90;;;;;;4996461;28;20099;-71
2022/04/29 06:55:27;;;;;;;33.47;8.43;;;8.60;99.90;;;;;;4995595;28;20042;-71
2022/04/29 06:57:52;;;;;;;13.48;5.88;;;8.60;99.90;;;;;;4995617;28;20506;-71
2022/04/29 07:00:19;;;;;;;20.10;5.07;;;8.60;99.90;;;;;;4994973;28;20497;-71
2022/04/29 07:02:45;;;;;;;14.50;4.13;;;8.70;99.90;;;;;;4995628;28;20022;-71
2022/04/29 07:05:11;;;;;;;8.05;3.25;;;8.90;99.90;;;;;;4995448;28;20032;-71
2022/04/29 07:07:37;;;;;;;9.02;4.38;;;9.00;99.90;;;;;;4995870;28;20117;-71
2022/04/29 07:10:04;;;;;;;26.65;5.18;;;9.10;99.90;;;;;;4996044;28;20030;-71
2022/04/29 07:12:33;;;;;;;13.70;4.25;;;9.30;99.90;;;;;;4995287;28;20030;-71
2022/04/29 07:14:59;;;;;;;18.02;4.55;;;9.40;99.90;;;;;;4994927;28;20403;-71
2022/04/29 07:17:25;;;;;;;9.98;4.18;;;9.50;99.90;;;;;;4995387;28;20109;-71
2022/04/29 07:19:52;;;;;;;16.15;4.38;;;9.60;99.90;;;;;;4995454;28;20034;-71
2022/04/29 07:22:18;;;;;;;16.08;4.55;;;9.60;99.90;;;;;;4995168;28;20032;-71
2022/04/29 07:24:44;;;;;;;11.73;4.70;;;9.60;99.90;;;;;;4994496;28;20057;-71
2022/04/29 07:27:11;;;;;;;13.30;4.82;;;9.60;99.90;;;;;;4995089;28;20046;-71
2022/04/29 07:29:37;;;;;;;24.70;4.85;;;9.70;99.90;;;;;;4995029;28;20506;-71
2022/04/29 07:32:03;;;;;;;11.65;4.70;;;9.70;99.90;;;;;;4995205;28;20058;-71
2022/04/29 07:42:41;;;;;;;12.45;4.45;;;9.80;99.90;;;;;;4994570;28;20124;-70
2022/04/29 07:45:07;;;;;;;12.57;4.07;;;9.90;99.90;;;;;;4994760;28;20023;-71
2022/04/29 07:47:36;;;;;;;20.95;5.03;;;9.90;99.90;;;;;;4994695;28;20026;-71
2022/04/29 07:50:02;;;;;;;20.85;3.65;;;9.90;99.90;;;;;;4994792;28;20046;-71
2022/04/29 07:52:28;;;;;;;10.10;2.95;;;9.70;99.90;;;;;;4994038;28;20482;-71
2022/04/29 07:54:53;;;;;;;13.57;2.70;;;9.70;99.90;;;;;;4994545;28;20030;-71
2022/04/29 07:57:19;;;;;;;8.23;2.42;;;9.70;99.90;;;;;;4994782;28;20022;-71
2022/04/29 07:59:44;;;;;;;5.63;2.25;;;9.80;99.90;;;;;;4994606;28;20026;-71
2022/04/29 08:02:10;;;;;;;13.77;2.95;;;9.80;99.90;;;;;;4994657;28;20034;-71
2022/04/29 08:04:36;;;;;;;6.13;2.50;;;9.80;99.90;;;;;;4994348;28;20026;-70
2022/04/29 08:07:02;;;;;;;9.82;3.03;;;9.70;99.90;;;;;;4993830;28;20476;-70
2022/04/29 08:09:28;;;;;;;6.68;2.55;;;9.70;99.90;;;;;;4994433;28;20026;-70
2022/04/29 08:11:54;;;;;;;8.82;3.08;;;9.70;99.90;;;;;;4994398;28;20026;-70
2022/04/29 08:14:20;;;;;;;11.30;2.78;;;9.80;99.90;;;;;;4994443;28;20498;-70
2022/04/29 08:16:46;;;;;;;10.23;3.22;;;9.80;99.90;;;;;;4994522;28;20493;-71
2022/04/29 08:19:12;;;;;;;14.80;3.17;;;9.90;99.90;;;;;;4993907;28;20109;-71
2022/04/29 08:21:37;;;;;;;6.13;2.90;;;10.00;99.90;;;;;;4993087;28;20065;-71
2022/04/29 08:24:03;;;;;;;11.75;2.60;;;10.00;99.90;;;;;;4994413;28;20434;-71
2022/04/29 08:26:29;;;;;;;6.65;2.65;;;10.00;99.90;;;;;;4994248;28;20106;-71
2022/04/29 08:28:55;;;;;;;11.07;2.67;;;10.10;99.90;;;;;;4994462;28;20026;-71
2022/04/29 08:31:21;;;;;;;13.18;3.53;;;9.90;99.90;;;;;;4994702;28;20073;-71
2022/04/29 08:33:47;;;;;;;16.50;2.63;;;10.30;99.90;;;;;;4993709;28;20018;-71
2022/04/29 08:36:12;;;;;;;12.48;2.17;;;10.90;99.90;;;;;;4994012;28;20537;-71
2022/04/29 08:38:38;;;;;;;8.20;2.47;;;11.40;99.90;;;;;;4994095;28;20038;-71
2022/04/29 08:41:06;;;;;;;7.07;2.30;;;11.60;99.90;;;;;;4993955;28;20030;-71
2022/04/29 08:43:33;;;;;;;10.70;2.05;;;11.60;99.90;;;;;;4994009;28;20029;-71
2022/04/29 08:46:00;;;;;;;6.68;1.70;;;11.40;99.90;;;;;;4994111;28;20037;-71
2022/04/29 08:48:28;;;;;;;9.35;2.10;;;11.50;99.90;;;;;;4993765;28;20495;-71
2022/04/29 08:50:57;;;;;;;11.75;2.95;;;11.30;99.90;;;;;;4994072;28;20018;-71
2022/04/29 08:53:22;;;;;;;14.02;2.20;;;10.90;99.90;;;;;;4995291;28;20026;-71
2022/04/29 08:58:39;;;;;;;;;;;10.40;99.90;;;;;;4998269;28;20041;-71
2022/04/29 09:01:13;;;;;;;8.15;2.63;;;10.40;99.90;;;;;;4997462;28;19906;-71
2022/04/29 09:03:41;;;;;;;;;;;11.00;99.90;;;;;;4998109;28;20056;-71
2022/04/29 09:06:07;;;;;;;8.38;2.22;;;11.80;99.90;;;;;;4997753;28;19905;-71
2022/04/29 09:08:44;;;;;;;7.68;2.22;;;12.10;99.90;;;;;;4997525;28;20026;-71
2022/04/29 09:11:11;;;;;;;7.75;1.73;;;12.40;99.90;;;;;;4998386;28;20383;-71
2022/04/29 09:13:38;;;;;;;7.68;2.20;;;12.40;99.90;;;;;;4998975;28;20380;-72
2022/04/29 09:16:10;;;;;;;7.13;2.08;;;12.40;99.90;;;;;;4998546;28;20022;-71
2022/04/29 09:18:39;;;;;;;5.35;1.70;;;12.20;99.90;;;;;;4997431;28;20037;-71
2022/04/29 09:21:13;;;;;;;7.85;1.88;;;12.10;99.90;;;;;;4997450;28;20053;-71
2022/04/29 09:23:43;;;;;;;9.95;2.65;;;11.60;99.90;;;;;;4997677;28;20047;-71
2022/04/29 09:26:26;;;;;;;7.63;2.03;;;11.60;99.90;;;;;;5013132;28;20053;-71
2022/04/29 09:29:09;;;;;;;9.70;2.30;;;11.50;99.90;;;;;;4997323;28;20044;-70
2022/04/29 09:31:56;;;;;;;8.75;2.15;;;11.90;99.90;;;;;;4997554;28;20356;-70
2022/04/29 09:34:23;;;;;;;6.18;2.10;;;12.70;99.90;;;;;;4997291;28;20035;-70
2022/04/29 09:36:49;;;;;;;9.05;2.08;;;12.50;99.90;;;;;;4997221;28;20487;-70
2022/04/29 09:39:34;;;;;;;4.00;2.03;;;12.60;99.90;;;;;;4997967;28;20034;-70
2022/04/29 09:42:01;;;;;;;9.98;2.25;;;12.50;99.90;;;;;;4998800;28;20032;-70
2022/04/29 09:44:30;;;;;;;7.43;2.92;;;12.70;99.90;;;;;;4998241;28;20027;-70
2022/04/29 09:46:56;;;;;;;5.10;2.00;;;13.00;99.90;;;;;;4998664;28;20019;-70
2022/04/29 09:49:27;;;;;;;13.38;3.33;;;12.90;99.90;;;;;;4997579;28;20027;-70
2022/04/29 09:51:53;;;;;;;11.70;2.83;;;12.70;99.90;;;;;;4997377;28;20022;-71
2022/04/29 09:54:30;;;;;;;8.27;3.03;;;12.30;99.90;;;;;;4997423;28;20479;-70
2022/04/29 09:57:03;;;;;;;9.82;2.97;;;12.10;99.90;;;;;;4997251;28;20029;-70
2022/04/29 09:59:33;;;;;;;6.13;2.15;;;12.10;99.90;;;;;;4996508;28;20030;-71
2022/04/29 10:02:00;;;;;;;9.70;1.80;;;12.00;99.90;;;;;;4997037;28;20030;-70
2022/04/29 10:04:28;;;;;;;5.32;2.17;;;12.00;99.90;;;;;;4997426;28;20471;-70
2022/04/29 10:06:54;;;;;;;7.82;2.17;;;12.10;99.90;;;;;;4997511;28;20022;-70
2022/04/29 10:09:21;;;;;;;7.00;2.67;;;12.00;99.90;;;;;;4998078;28;20049;-70
2022/04/29 10:11:49;;;;;;;16.02;3.28;;;11.70;99.90;;;;;;4997524;28;20076;-70
2022/04/29 10:14:16;;;;;;;8.65;3.38;;;11.70;99.90;;;;;;4996431;28;20090;-70
2022/04/29 10:21:15;;;;;;;14.75;2.80;;;11.90;99.90;;;;;;4997092;28;20032;-71
2022/04/29 10:22:15;;;;;;;8.85;2.15;;;11.60;99.90;;;;;;4996817;28;20104;-70
2022/04/29 10:24:42;;;;;;;7.82;2.33;;;11.80;99.90;;;;;;4996264;28;20069;-70
2022/04/29 10:27:07;;;;;;;8.88;2.42;;;12.00;99.90;;;;;;4996441;28;20479;-71
2022/04/29 10:29:33;;;;;;;6.80;2.58;;;12.50;99.90;;;;;;4995094;28;20077;-70
2022/04/29 10:32:09;;;;;;;6.20;3.05;;;12.60;99.90;;;;;;4994996;28;20033;-70
2022/04/29 10:34:35;;;;;;;11.82;3.30;;;12.60;99.90;;;;;;4997129;28;20030;-70
2022/04/29 10:37:01;;;;;;;4.50;2.60;;;12.30;99.90;;;;;;4995364;28;20041;-69
2022/04/29 10:39:27;;;;;;;11.15;2.60;;;12.10;99.90;;;;;;4996565;28;20040;-71
2022/04/29 10:42:01;;;;;;;9.32;3.28;;;11.70;99.90;;;;;;4996428;28;20109;-70
2022/04/29 10:44:28;;;;;;;10.27;3.60;;;11.40;99.90;;;;;;4995818;28;20501;-69
2022/04/29 10:46:54;;;;;;;6.35;3.17;;;11.40;99.90;;;;;;4995972;28;20022;-70
2022/04/29 10:49:27;;;;;;;9.70;3.72;;;11.40;99.90;;;;;;4996332;28;20026;-70
2022/04/29 10:51:55;;;;;;;67.88;42.60;;;11.30;99.90;;;;;;4994527;28;20018;-70
2022/04/29 10:54:55;;;;;;;9.18;5.13;;;11.60;99.90;;;;;;4995803;28;20105;-70
2022/04/29 10:57:44;;;;;;;24.48;4.47;;;11.80;99.90;;;;;;4984493;28;20118;-70
2022/04/29 11:00:13;;;;;;;6.82;4.65;;;12.10;99.90;;;;;;4996151;28;20483;-70
2022/04/29 11:02:39;;;;;;;13.30;3.83;;;12.50;99.90;;;;;;4994990;28;20118;-71
2022/04/29 11:05:08;;;;;;;10.50;3.22;;;12.70;99.90;;;;;;4995600;28;20053;-70
2022/04/29 11:07:42;;;;;;;8.68;3.83;;;12.50;99.90;;;;;;4995432;28;20026;-70
2022/04/29 11:10:13;;;;;;;13.90;4.93;;;12.30;99.90;;;;;;4995787;28;20085;-69
2022/04/29 11:12:41;;;;;;;11.73;2.92;;;12.00;99.90;;;;;;4995545;28;20025;-70
2022/04/29 11:15:10;;;;;;;8.88;3.30;;;11.90;99.90;;;;;;4995098;28;20018;-69
2022/04/29 11:17:37;;;;;;;10.45;3.75;;;11.90;99.90;;;;;;4995261;28;20022;-69
2022/04/29 11:20:21;;;;;;;12.05;3.17;;;12.10;99.90;;;;;;4996074;28;20037;-69
2022/04/29 11:26:10;;;;;;;4.28;3.42;;;12.40;99.90;;;;;;4995053;28;20040;-70
2022/04/29 11:28:36;;;;;;;7.55;3.75;;;12.40;99.90;;;;;;4962678;28;20065;-71
2022/04/29 11:31:04;;;;;;;12.07;3.05;;;12.30;99.90;;;;;;4994869;28;20536;-70
2022/04/29 11:33:30;;;;;;;11.65;2.80;;;12.20;99.90;;;;;;4995070;28;20101;-71
2022/04/29 11:36:05;;;;;;;7.47;3.53;;;12.20;99.90;;;;;;4995048;28;20455;-72
2022/04/29 11:38:38;;;;;;;11.65;2.97;;;12.30;99.90;;;;;;4996664;28;20030;-74
2022/04/29 11:41:04;;;;;;;5.28;2.47;;;12.30;99.90;;;;;;4996175;28;20030;-72
2022/04/29 11:43:30;;;;;;;6.00;2.63;;;12.50;99.90;;;;;;4994283;28;20042;-73
2022/04/29 11:46:06;;;;;;;12.40;5.10;;;12.30;99.90;;;;;;4995293;28;20046;-72
2022/04/29 11:48:33;;;;;;;5.10;2.47;;;12.30;99.90;;;;;;4994814;28;20032;-72
2022/04/29 11:50:59;;;;;;;7.25;2.30;;;12.30;99.90;;;;;;4994860;28;20019;-73
2022/04/29 11:53:25;;;;;;;8.15;2.70;;;12.30;99.90;;;;;;4994463;28;20474;-71
2022/04/29 11:55:51;;;;;;;8.63;2.78;;;12.20;99.90;;;;;;4994497;28;20030;-72
2022/04/29 11:58:17;;;;;;;9.82;2.95;;;12.30;99.90;;;;;;4994739;28;20548;-73
2022/04/29 12:00:54;;;;;;;14.65;2.88;;;12.20;99.90;;;;;;4994687;28;20113;-73
2022/04/29 12:03:21;;;;;;;7.78;3.42;;;12.20;99.90;;;;;;4995192;28;20472;-72
2022/04/29 12:05:47;;;;;;;6.45;2.83;;;12.00;99.90;;;;;;4993917;28;20034;-73
2022/04/29 12:08:12;;;;;;;6.35;2.60;;;11.80;99.90;;;;;;4994656;28;20049;-73
2022/04/29 12:10:42;;;;;;;10.32;2.78;;;11.70;99.90;;;;;;4994542;28;20029;-73
2022/04/29 12:13:07;;;;;;;5.97;2.22;;;11.40;99.90;;;;;;4994463;28;20419;-72
2022/04/29 12:15:35;;;;;;;4.68;2.33;;;11.30;99.90;;;;;;4994494;28;20057;-72
2022/04/29 12:18:03;;;;;;;10.23;2.30;;;11.20;99.90;;;;;;4995414;28;20081;-73
2022/04/29 12:20:30;;;;;;;11.27;2.67;;;11.20;99.90;;;;;;4994714;28;20054;-74
2022/04/29 12:23:16;;;;;;;31.50;14.13;;;11.30;99.90;;;;;;4994487;28;20029;-73
2022/04/29 12:25:44;;;;;;;27.70;12.23;;;11.50;99.90;;;;;;4994550;28;20085;-73
2022/04/29 12:28:11;;;;;;;20.83;4.68;;;11.80;99.90;;;;;;4995722;28;20018;-74
2022/04/29 12:36:15;;;;;;;7.88;2.90;;;12.00;99.90;;;;;;4999218;28;20096;-73
2022/04/29 12:38:43;;;;;;;14.60;3.70;;;11.80;99.90;;;;;;4998121;28;20027;-73
2022/04/29 12:41:24;;;;;;;14.35;3.45;;;11.90;99.90;;;;;;4998621;28;20049;-73
2022/04/29 12:43:51;;;;;;;10.05;3.53;;;11.80;99.90;;;;;;4998446;28;20023;-73
2022/04/29 12:46:21;;;;;;;9.43;3.72;;;11.60;99.90;;;;;;4998778;28;20085;-73
2022/04/29 12:48:51;;;;;;;12.80;6.05;;;11.40;99.90;;;;;;4998795;28;20423;-73
2022/04/29 12:51:28;;;;;;;10.82;4.22;;;11.50;99.90;;;;;;4996136;28;20113;-73
2022/04/29 12:53:55;;;;;;;9.30;4.78;;;11.50;99.90;;;;;;4998725;28;20027;-73
2022/04/29 12:56:29;;;;;;;16.83;3.90;;;11.70;99.90;;;;;;5013650;28;20026;-73
2022/04/29 12:58:55;;;;;;;;;;;12.20;99.90;;;;;;4999083;28;20032;-73
2022/04/29 13:01:20;;;;;;;9.38;3.10;;;12.70;99.90;;;;;;4998329;28;20004;-73
2022/04/29 13:03:51;;;;;;;27.27;10.82;;;12.40;99.90;;;;;;4997715;28;20033;-71
2022/04/29 13:06:20;;;;;;;9.80;4.55;;;12.10;99.90;;;;;;4998361;28;20042;-73
2022/04/29 13:08:48;;;;;;;14.25;4.65;;;11.70;99.90;;;;;;4998425;28;20022;-73
2022/04/29 13:11:16;;;;;;;15.43;2.28;;;11.70;99.90;;;;;;4998355;28;20102;-73
2022/04/29 13:13:41;;;;;;;8.05;2.85;;;11.80;99.90;;;;;;4998384;28;20486;-73
2022/04/29 13:16:07;;;;;;;7.63;1.80;;;11.90;99.90;;;;;;4997840;28;20030;-73
2022/04/29 13:18:32;;;;;;;12.73;2.35;;;12.10;99.90;;;;;;4998389;28;20093;-72